sensor_id;sensor_type;location;lat;lon;timestamp;P1;durP1;ratioP1;P2;durP2;ratioP2
38053;SDS011;23859;50.672;7.164;2023-02-13T00:02:19;25.40;;;12.68;;
38053;SDS011;23859;50.672;7.164;2023-02-13T00:04:45;27.38;;;13.45;;
38053;SDS011;23859;50.672;7.164;2023-02-13T00:07:11;23.33;;;13.25;;
38053;SDS011;23859;50.672;7.164;2023-02-13T00:09:38;25.65;;;13.18;;
38053;SDS011;23859;50.672;7.164;2023-02-13T00:12:04;26.90;;;14.25;;
38053;SDS011;23859;50.672;7.164;2023-02-13T00:14:35;26.85;;;13.93;;
38053;SDS011;23859;50.672;7.164;2023-02-13T00:17:02;21.58;;;12.02;;
38053;SDS011;23859;50.672;7.164;2023-02-13T00:19:29;20.58;;;11.68;;
38053;SDS011;23859;50.672;7.164;2023-02-13T00:21:55;25.88;;;11.90;;
38053;SDS011;23859;50.672;7.164;2023-02-13T00:24:21;23.17;;;13.20;;
38053;SDS011;23859;50.672;7.164;2023-02-13T00:26:47;22.80;;;12.00;;
38053;SDS011;23859;50.672;7.164;2023-02-13T00:29:13;21.02;;;10.70;;
38053;SDS011;23859;50.672;7.164;2023-02-13T00:31:39;24.15;;;12.75;;
38053;SDS011;23859;50.672;7.164;2023-02-13T00:34:05;23.52;;;12.88;;
38053;SDS011;23859;50.672;7.164;2023-02-13T00:36:31;23.15;;;11.40;;
38053;SDS011;23859;50.672;7.164;2023-02-13T00:38:57;24.95;;;13.77;;
38053;SDS011;23859;50.672;7.164;2023-02-13T00:41:23;24.10;;;13.38;;
38053;SDS011;23859;50.672;7.164;2023-02-13T00:43:50;28.42;;;12.93;;
38053;SDS011;23859;50.672;7.164;2023-02-13T00:46:16;21.95;;;11.70;;
38053;SDS011;23859;50.672;7.164;2023-02-13T00:48:43;19.23;;;10.75;;
38053;SDS011;23859;50.672;7.164;2023-02-13T00:51:09;20.65;;;11.40;;
38053;SDS011;23859;50.672;7.164;2023-02-13T00:53:35;20.73;;;11.80;;
38053;SDS011;23859;50.672;7.164;2023-02-13T00:56:02;22.00;;;12.38;;
38053;SDS011;23859;50.672;7.164;2023-02-13T00:58:29;21.60;;;11.60;;
38053;SDS011;23859;50.672;7.164;2023-02-13T01:00:56;21.45;;;12.13;;
38053;SDS011;23859;50.672;7.164;2023-02-13T01:03:23;21.58;;;10.98;;
38053;SDS011;23859;50.672;7.164;2023-02-13T01:05:49;21.58;;;11.13;;
38053;SDS011;23859;50.672;7.164;2023-02-13T01:08:15;21.05;;;12.38;;
38053;SDS011;23859;50.672;7.164;2023-02-13T01:10:43;21.58;;;12.40;;
38053;SDS011;23859;50.672;7.164;2023-02-13T01:13:12;21.77;;;11.98;;
38053;SDS011;23859;50.672;7.164;2023-02-13T01:15:39;20.77;;;11.95;;
38053;SDS011;23859;50.672;7.164;2023-02-13T01:18:06;22.80;;;11.73;;
38053;SDS011;23859;50.672;7.164;2023-02-13T01:20:32;23.65;;;13.10;;
38053;SDS011;23859;50.672;7.164;2023-02-13T01:22:58;19.23;;;11.30;;
38053;SDS011;23859;50.672;7.164;2023-02-13T01:25:24;24.13;;;12.00;;
38053;SDS011;23859;50.672;7.164;2023-02-13T01:27:51;22.35;;;12.98;;
38053;SDS011;23859;50.672;7.164;2023-02-13T01:30:17;21.25;;;11.65;;
38053;SDS011;23859;50.672;7.164;2023-02-13T01:32:44;22.17;;;12.43;;
38053;SDS011;23859;50.672;7.164;2023-02-13T01:35:12;22.83;;;11.43;;
38053;SDS011;23859;50.672;7.164;2023-02-13T01:37:38;20.00;;;11.85;;
38053;SDS011;23859;50.672;7.164;2023-02-13T01:40:05;21.45;;;13.15;;
38053;SDS011;23859;50.672;7.164;2023-02-13T01:42:33;20.42;;;11.15;;
38053;SDS011;23859;50.672;7.164;2023-02-13T01:45:02;21.55;;;11.38;;
38053;SDS011;23859;50.672;7.164;2023-02-13T01:47:39;20.48;;;11.57;;
38053;SDS011;23859;50.672;7.164;2023-02-13T01:50:10;19.77;;;11.43;;
38053;SDS011;23859;50.672;7.164;2023-02-13T01:53:03;19.75;;;11.20;;
38053;SDS011;23859;50.672;7.164;2023-02-13T01:55:34;22.60;;;11.65;;
38053;SDS011;23859;50.672;7.164;2023-02-13T01:58:06;23.50;;;12.20;;
38053;SDS011;23859;50.672;7.164;2023-02-13T02:00:35;20.77;;;11.70;;
38053;SDS011;23859;50.672;7.164;2023-02-13T02:03:11;22.95;;;11.57;;
38053;SDS011;23859;50.672;7.164;2023-02-13T02:05:41;24.65;;;12.90;;
38053;SDS011;23859;50.672;7.164;2023-02-13T02:08:08;23.70;;;13.05;;
38053;SDS011;23859;50.672;7.164;2023-02-13T02:10:36;22.40;;;12.70;;
38053;SDS011;23859;50.672;7.164;2023-02-13T02:13:13;23.63;;;12.73;;
38053;SDS011;23859;50.672;7.164;2023-02-13T02:15:42;23.55;;;13.63;;
38053;SDS011;23859;50.672;7.164;2023-02-13T02:18:16;22.38;;;13.75;;
38053;SDS011;23859;50.672;7.164;2023-02-13T02:29:13;23.60;;;14.50;;
38053;SDS011;23859;50.672;7.164;2023-02-13T02:34:44;24.92;;;13.88;;
38053;SDS011;23859;50.672;7.164;2023-02-13T02:43:15;24.55;;;13.90;;
38053;SDS011;23859;50.672;7.164;2023-02-13T02:49:03;26.77;;;15.63;;
38053;SDS011;23859;50.672;7.164;2023-02-13T02:51:54;25.95;;;15.00;;
38053;SDS011;23859;50.672;7.164;2023-02-13T02:57:48;25.17;;;12.88;;
38053;SDS011;23859;50.672;7.164;2023-02-13T03:00:43;28.08;;;14.63;;
38053;SDS011;23859;50.672;7.164;2023-02-13T03:03:29;30.90;;;15.75;;
38053;SDS011;23859;50.672;7.164;2023-02-13T03:06:15;26.63;;;15.40;;
38053;SDS011;23859;50.672;7.164;2023-02-13T03:09:15;26.55;;;15.57;;
38053;SDS011;23859;50.672;7.164;2023-02-13T03:12:05;26.73;;;15.00;;
38053;SDS011;23859;50.672;7.164;2023-02-13T03:14:52;23.15;;;13.63;;
38053;SDS011;23859;50.672;7.164;2023-02-13T03:17:18;30.15;;;16.10;;
38053;SDS011;23859;50.672;7.164;2023-02-13T03:25:46;30.67;;;15.68;;
38053;SDS011;23859;50.672;7.164;2023-02-13T03:28:17;27.23;;;15.02;;
38053;SDS011;23859;50.672;7.164;2023-02-13T03:34:09;28.63;;;15.93;;
38053;SDS011;23859;50.672;7.164;2023-02-13T03:36:43;26.55;;;15.43;;
38053;SDS011;23859;50.672;7.164;2023-02-13T03:39:47;25.80;;;14.23;;
38053;SDS011;23859;50.672;7.164;2023-02-13T03:42:34;29.77;;;16.45;;
38053;SDS011;23859;50.672;7.164;2023-02-13T03:45:06;30.23;;;15.50;;
38053;SDS011;23859;50.672;7.164;2023-02-13T03:47:57;29.10;;;15.98;;
38053;SDS011;23859;50.672;7.164;2023-02-13T03:50:33;28.25;;;15.52;;
38053;SDS011;23859;50.672;7.164;2023-02-13T03:53:07;28.55;;;14.88;;
38053;SDS011;23859;50.672;7.164;2023-02-13T03:55:37;27.45;;;14.35;;
38053;SDS011;23859;50.672;7.164;2023-02-13T03:58:27;28.95;;;15.75;;
38053;SDS011;23859;50.672;7.164;2023-02-13T04:01:18;27.67;;;14.73;;
38053;SDS011;23859;50.672;7.164;2023-02-13T04:06:29;25.25;;;14.15;;
38053;SDS011;23859;50.672;7.164;2023-02-13T04:09:00;29.73;;;16.88;;
38053;SDS011;23859;50.672;7.164;2023-02-13T04:11:33;26.00;;;14.95;;
38053;SDS011;23859;50.672;7.164;2023-02-13T04:14:07;28.15;;;15.50;;
38053;SDS011;23859;50.672;7.164;2023-02-13T04:16:40;27.40;;;15.90;;
38053;SDS011;23859;50.672;7.164;2023-02-13T04:19:09;25.02;;;14.77;;
38053;SDS011;23859;50.672;7.164;2023-02-13T04:21:37;30.80;;;16.40;;
38053;SDS011;23859;50.672;7.164;2023-02-13T04:24:04;26.52;;;15.20;;
38053;SDS011;23859;50.672;7.164;2023-02-13T04:26:35;24.63;;;14.15;;
38053;SDS011;23859;50.672;7.164;2023-02-13T04:29:04;25.17;;;14.82;;
38053;SDS011;23859;50.672;7.164;2023-02-13T04:31:30;27.20;;;15.30;;
38053;SDS011;23859;50.672;7.164;2023-02-13T04:33:57;28.00;;;15.20;;
38053;SDS011;23859;50.672;7.164;2023-02-13T04:36:23;27.60;;;15.07;;
38053;SDS011;23859;50.672;7.164;2023-02-13T04:38:49;26.27;;;13.88;;
38053;SDS011;23859;50.672;7.164;2023-02-13T04:41:15;26.80;;;14.57;;
38053;SDS011;23859;50.672;7.164;2023-02-13T04:43:42;25.00;;;13.52;;
38053;SDS011;23859;50.672;7.164;2023-02-13T04:46:08;25.75;;;14.38;;
38053;SDS011;23859;50.672;7.164;2023-02-13T04:48:34;28.10;;;14.30;;
38053;SDS011;23859;50.672;7.164;2023-02-13T04:51:00;21.67;;;12.02;;
38053;SDS011;23859;50.672;7.164;2023-02-13T04:53:26;23.35;;;13.07;;
38053;SDS011;23859;50.672;7.164;2023-02-13T04:55:52;24.23;;;14.27;;
38053;SDS011;23859;50.672;7.164;2023-02-13T04:58:18;18.55;;;10.93;;
38053;SDS011;23859;50.672;7.164;2023-02-13T05:00:44;27.52;;;14.30;;
38053;SDS011;23859;50.672;7.164;2023-02-13T05:03:11;23.13;;;12.23;;
38053;SDS011;23859;50.672;7.164;2023-02-13T05:05:38;20.38;;;12.48;;
38053;SDS011;23859;50.672;7.164;2023-02-13T05:08:07;20.90;;;12.07;;
38053;SDS011;23859;50.672;7.164;2023-02-13T05:10:34;21.88;;;12.07;;
38053;SDS011;23859;50.672;7.164;2023-02-13T05:13:00;21.92;;;12.68;;
38053;SDS011;23859;50.672;7.164;2023-02-13T05:15:26;19.30;;;11.32;;
38053;SDS011;23859;50.672;7.164;2023-02-13T05:17:52;21.75;;;12.85;;
38053;SDS011;23859;50.672;7.164;2023-02-13T05:20:18;21.33;;;12.35;;
38053;SDS011;23859;50.672;7.164;2023-02-13T05:22:48;21.52;;;12.20;;
38053;SDS011;23859;50.672;7.164;2023-02-13T05:25:35;24.40;;;11.95;;
38053;SDS011;23859;50.672;7.164;2023-02-13T05:28:02;19.42;;;11.27;;
38053;SDS011;23859;50.672;7.164;2023-02-13T05:30:28;23.25;;;12.55;;
38053;SDS011;23859;50.672;7.164;2023-02-13T05:32:54;19.20;;;10.77;;
38053;SDS011;23859;50.672;7.164;2023-02-13T05:35:21;18.17;;;11.15;;
38053;SDS011;23859;50.672;7.164;2023-02-13T05:37:49;19.88;;;11.48;;
38053;SDS011;23859;50.672;7.164;2023-02-13T05:40:15;19.67;;;11.52;;
38053;SDS011;23859;50.672;7.164;2023-02-13T05:42:41;19.90;;;11.90;;
38053;SDS011;23859;50.672;7.164;2023-02-13T05:45:07;23.02;;;12.02;;
38053;SDS011;23859;50.672;7.164;2023-02-13T05:47:34;21.80;;;11.55;;
38053;SDS011;23859;50.672;7.164;2023-02-13T05:50:00;21.10;;;10.90;;
38053;SDS011;23859;50.672;7.164;2023-02-13T05:52:26;21.27;;;12.05;;
38053;SDS011;23859;50.672;7.164;2023-02-13T05:54:52;24.25;;;13.77;;
38053;SDS011;23859;50.672;7.164;2023-02-13T05:57:18;21.00;;;12.50;;
38053;SDS011;23859;50.672;7.164;2023-02-13T05:59:44;24.77;;;13.45;;
38053;SDS011;23859;50.672;7.164;2023-02-13T06:02:10;21.88;;;12.50;;
38053;SDS011;23859;50.672;7.164;2023-02-13T06:04:37;21.63;;;11.35;;
38053;SDS011;23859;50.672;7.164;2023-02-13T06:07:03;19.58;;;12.25;;
38053;SDS011;23859;50.672;7.164;2023-02-13T06:09:29;25.27;;;13.27;;
38053;SDS011;23859;50.672;7.164;2023-02-13T06:11:55;20.35;;;12.63;;
38053;SDS011;23859;50.672;7.164;2023-02-13T06:14:21;22.33;;;12.43;;
38053;SDS011;23859;50.672;7.164;2023-02-13T06:16:47;27.08;;;13.95;;
38053;SDS011;23859;50.672;7.164;2023-02-13T06:19:13;21.75;;;12.07;;
38053;SDS011;23859;50.672;7.164;2023-02-13T06:21:39;24.58;;;13.43;;
38053;SDS011;23859;50.672;7.164;2023-02-13T06:24:06;24.35;;;13.27;;
38053;SDS011;23859;50.672;7.164;2023-02-13T06:26:33;24.52;;;13.30;;
38053;SDS011;23859;50.672;7.164;2023-02-13T06:28:59;24.13;;;13.45;;
38053;SDS011;23859;50.672;7.164;2023-02-13T06:31:25;25.92;;;14.05;;
38053;SDS011;23859;50.672;7.164;2023-02-13T06:33:51;23.52;;;12.95;;
38053;SDS011;23859;50.672;7.164;2023-02-13T06:36:17;21.60;;;13.15;;
38053;SDS011;23859;50.672;7.164;2023-02-13T06:38:43;25.13;;;13.95;;
38053;SDS011;23859;50.672;7.164;2023-02-13T06:41:09;25.48;;;13.82;;
38053;SDS011;23859;50.672;7.164;2023-02-13T06:43:35;23.95;;;13.98;;
38053;SDS011;23859;50.672;7.164;2023-02-13T06:46:05;26.55;;;14.18;;
38053;SDS011;23859;50.672;7.164;2023-02-13T06:48:32;30.10;;;15.45;;
38053;SDS011;23859;50.672;7.164;2023-02-13T06:50:58;27.55;;;14.27;;
38053;SDS011;23859;50.672;7.164;2023-02-13T06:53:26;30.88;;;15.65;;
38053;SDS011;23859;50.672;7.164;2023-02-13T06:55:52;24.25;;;13.75;;
38053;SDS011;23859;50.672;7.164;2023-02-13T06:58:22;26.58;;;14.68;;
38053;SDS011;23859;50.672;7.164;2023-02-13T07:00:50;27.75;;;14.40;;
38053;SDS011;23859;50.672;7.164;2023-02-13T07:03:16;28.30;;;16.02;;
38053;SDS011;23859;50.672;7.164;2023-02-13T07:05:43;30.05;;;16.05;;
38053;SDS011;23859;50.672;7.164;2023-02-13T07:08:09;30.30;;;15.38;;
38053;SDS011;23859;50.672;7.164;2023-02-13T07:10:40;30.65;;;16.38;;
38053;SDS011;23859;50.672;7.164;2023-02-13T07:13:06;29.10;;;15.55;;
38053;SDS011;23859;50.672;7.164;2023-02-13T07:15:33;27.15;;;15.82;;
38053;SDS011;23859;50.672;7.164;2023-02-13T07:18:00;32.00;;;17.85;;
38053;SDS011;23859;50.672;7.164;2023-02-13T07:20:26;30.10;;;16.60;;
38053;SDS011;23859;50.672;7.164;2023-02-13T07:22:56;29.40;;;16.10;;
38053;SDS011;23859;50.672;7.164;2023-02-13T07:25:23;36.25;;;16.55;;
38053;SDS011;23859;50.672;7.164;2023-02-13T07:27:50;35.78;;;16.83;;
38053;SDS011;23859;50.672;7.164;2023-02-13T07:30:16;25.75;;;14.80;;
38053;SDS011;23859;50.672;7.164;2023-02-13T07:32:42;28.65;;;15.15;;
38053;SDS011;23859;50.672;7.164;2023-02-13T07:35:08;30.27;;;15.02;;
38053;SDS011;23859;50.672;7.164;2023-02-13T07:37:34;26.90;;;14.68;;
38053;SDS011;23859;50.672;7.164;2023-02-13T07:40:00;25.67;;;14.00;;
38053;SDS011;23859;50.672;7.164;2023-02-13T07:42:28;26.48;;;15.00;;
38053;SDS011;23859;50.672;7.164;2023-02-13T07:44:56;32.05;;;17.02;;
38053;SDS011;23859;50.672;7.164;2023-02-13T07:47:22;30.50;;;15.65;;
38053;SDS011;23859;50.672;7.164;2023-02-13T07:49:48;24.20;;;14.27;;
38053;SDS011;23859;50.672;7.164;2023-02-13T07:52:14;27.85;;;15.50;;
38053;SDS011;23859;50.672;7.164;2023-02-13T07:54:40;24.80;;;14.43;;
38053;SDS011;23859;50.672;7.164;2023-02-13T07:57:11;27.58;;;13.75;;
38053;SDS011;23859;50.672;7.164;2023-02-13T07:59:40;24.35;;;13.18;;
38053;SDS011;23859;50.672;7.164;2023-02-13T08:02:11;30.23;;;15.20;;
38053;SDS011;23859;50.672;7.164;2023-02-13T08:04:38;23.10;;;13.07;;
38053;SDS011;23859;50.672;7.164;2023-02-13T08:07:04;21.17;;;12.48;;
38053;SDS011;23859;50.672;7.164;2023-02-13T08:09:30;23.23;;;13.57;;
38053;SDS011;23859;50.672;7.164;2023-02-13T08:12:15;24.45;;;12.52;;
38053;SDS011;23859;50.672;7.164;2023-02-13T08:14:41;25.33;;;12.50;;
38053;SDS011;23859;50.672;7.164;2023-02-13T08:17:08;18.52;;;11.15;;
38053;SDS011;23859;50.672;7.164;2023-02-13T08:19:34;19.70;;;11.90;;
38053;SDS011;23859;50.672;7.164;2023-02-13T08:22:00;21.23;;;12.30;;
38053;SDS011;23859;50.672;7.164;2023-02-13T08:24:26;19.85;;;11.38;;
38053;SDS011;23859;50.672;7.164;2023-02-13T08:26:52;19.40;;;12.45;;
38053;SDS011;23859;50.672;7.164;2023-02-13T08:29:19;19.20;;;11.18;;
38053;SDS011;23859;50.672;7.164;2023-02-13T08:31:45;24.00;;;13.05;;
38053;SDS011;23859;50.672;7.164;2023-02-13T08:34:11;21.77;;;12.77;;
38053;SDS011;23859;50.672;7.164;2023-02-13T08:36:37;21.73;;;11.90;;
38053;SDS011;23859;50.672;7.164;2023-02-13T08:39:03;25.42;;;13.02;;
38053;SDS011;23859;50.672;7.164;2023-02-13T08:41:29;21.30;;;11.68;;
38053;SDS011;23859;50.672;7.164;2023-02-13T08:43:55;23.10;;;12.18;;
38053;SDS011;23859;50.672;7.164;2023-02-13T08:46:21;20.13;;;11.50;;
38053;SDS011;23859;50.672;7.164;2023-02-13T08:48:48;20.75;;;11.43;;
38053;SDS011;23859;50.672;7.164;2023-02-13T08:51:15;19.38;;;12.13;;
38053;SDS011;23859;50.672;7.164;2023-02-13T08:53:41;21.70;;;12.65;;
38053;SDS011;23859;50.672;7.164;2023-02-13T08:56:07;22.02;;;12.10;;
38053;SDS011;23859;50.672;7.164;2023-02-13T08:58:33;19.20;;;10.85;;
38053;SDS011;23859;50.672;7.164;2023-02-13T09:01:02;23.48;;;12.77;;
38053;SDS011;23859;50.672;7.164;2023-02-13T09:03:30;19.88;;;12.25;;
38053;SDS011;23859;50.672;7.164;2023-02-13T09:05:57;20.77;;;10.50;;
38053;SDS011;23859;50.672;7.164;2023-02-13T09:08:24;21.02;;;11.98;;
38053;SDS011;23859;50.672;7.164;2023-02-13T09:10:57;23.45;;;12.75;;
38053;SDS011;23859;50.672;7.164;2023-02-13T09:13:25;20.55;;;11.25;;
38053;SDS011;23859;50.672;7.164;2023-02-13T09:15:57;18.55;;;10.75;;
38053;SDS011;23859;50.672;7.164;2023-02-13T09:18:24;18.70;;;10.93;;
38053;SDS011;23859;50.672;7.164;2023-02-13T09:20:56;18.52;;;10.30;;
38053;SDS011;23859;50.672;7.164;2023-02-13T09:23:25;19.23;;;11.40;;
38053;SDS011;23859;50.672;7.164;2023-02-13T09:25:57;20.83;;;11.25;;
38053;SDS011;23859;50.672;7.164;2023-02-13T09:28:24;20.80;;;10.60;;
38053;SDS011;23859;50.672;7.164;2023-02-13T09:30:50;23.38;;;11.57;;
38053;SDS011;23859;50.672;7.164;2023-02-13T09:33:16;22.17;;;11.63;;
38053;SDS011;23859;50.672;7.164;2023-02-13T09:35:42;17.38;;;10.20;;
38053;SDS011;23859;50.672;7.164;2023-02-13T09:38:08;19.10;;;11.02;;
38053;SDS011;23859;50.672;7.164;2023-02-13T09:40:36;16.15;;;10.27;;
38053;SDS011;23859;50.672;7.164;2023-02-13T09:46:05;20.35;;;11.50;;
38053;SDS011;23859;50.672;7.164;2023-02-13T09:48:38;21.95;;;11.13;;
38053;SDS011;23859;50.672;7.164;2023-02-13T09:51:08;21.25;;;11.95;;
38053;SDS011;23859;50.672;7.164;2023-02-13T09:53:40;21.98;;;10.90;;
38053;SDS011;23859;50.672;7.164;2023-02-13T09:56:12;16.40;;;9.50;;
38053;SDS011;23859;50.672;7.164;2023-02-13T09:58:46;19.92;;;9.35;;
38053;SDS011;23859;50.672;7.164;2023-02-13T10:11:35;17.98;;;9.45;;
38053;SDS011;23859;50.672;7.164;2023-02-13T10:14:14;15.35;;;9.02;;
38053;SDS011;23859;50.672;7.164;2023-02-13T10:17:09;14.90;;;8.77;;
38053;SDS011;23859;50.672;7.164;2023-02-13T10:19:51;14.85;;;9.02;;
38053;SDS011;23859;50.672;7.164;2023-02-13T10:27:36;15.82;;;9.23;;
38053;SDS011;23859;50.672;7.164;2023-02-13T10:30:30;13.63;;;8.67;;
38053;SDS011;23859;50.672;7.164;2023-02-13T10:33:03;16.00;;;8.43;;
38053;SDS011;23859;50.672;7.164;2023-02-13T10:35:55;13.35;;;8.00;;
38053;SDS011;23859;50.672;7.164;2023-02-13T10:38:30;13.77;;;8.57;;
38053;SDS011;23859;50.672;7.164;2023-02-13T10:44:11;13.30;;;7.63;;
38053;SDS011;23859;50.672;7.164;2023-02-13T10:52:20;12.32;;;8.43;;
38053;SDS011;23859;50.672;7.164;2023-02-13T10:55:09;12.02;;;7.60;;
38053;SDS011;23859;50.672;7.164;2023-02-13T11:00:32;13.15;;;8.45;;
38053;SDS011;23859;50.672;7.164;2023-02-13T11:03:02;13.75;;;8.85;;
38053;SDS011;23859;50.672;7.164;2023-02-13T11:05:31;14.70;;;8.20;;
38053;SDS011;23859;50.672;7.164;2023-02-13T11:08:01;10.18;;;7.40;;
38053;SDS011;23859;50.672;7.164;2023-02-13T11:10:28;15.13;;;8.80;;
38053;SDS011;23859;50.672;7.164;2023-02-13T11:12:54;11.73;;;7.90;;
38053;SDS011;23859;50.672;7.164;2023-02-13T11:15:24;12.02;;;8.40;;
38053;SDS011;23859;50.672;7.164;2023-02-13T11:17:54;13.45;;;8.65;;
38053;SDS011;23859;50.672;7.164;2023-02-13T11:20:34;13.70;;;7.47;;
38053;SDS011;23859;50.672;7.164;2023-02-13T11:23:14;13.20;;;7.53;;
38053;SDS011;23859;50.672;7.164;2023-02-13T11:26:00;12.38;;;8.13;;
38053;SDS011;23859;50.672;7.164;2023-02-13T11:28:29;13.98;;;8.25;;
38053;SDS011;23859;50.672;7.164;2023-02-13T11:31:08;14.45;;;7.68;;
38053;SDS011;23859;50.672;7.164;2023-02-13T11:33:54;11.90;;;8.00;;
38053;SDS011;23859;50.672;7.164;2023-02-13T11:36:23;13.02;;;7.75;;
38053;SDS011;23859;50.672;7.164;2023-02-13T11:38:57;13.02;;;7.38;;
38053;SDS011;23859;50.672;7.164;2023-02-13T11:41:30;11.05;;;6.97;;
38053;SDS011;23859;50.672;7.164;2023-02-13T11:44:17;13.70;;;8.27;;
38053;SDS011;23859;50.672;7.164;2023-02-13T11:46:49;13.73;;;8.45;;
38053;SDS011;23859;50.672;7.164;2023-02-13T11:49:21;13.95;;;8.30;;
38053;SDS011;23859;50.672;7.164;2023-02-13T11:51:50;15.23;;;7.30;;
38053;SDS011;23859;50.672;7.164;2023-02-13T11:56:53;13.13;;;7.78;;
38053;SDS011;23859;50.672;7.164;2023-02-13T11:59:24;13.20;;;7.20;;
38053;SDS011;23859;50.672;7.164;2023-02-13T12:02:00;11.80;;;7.00;;
38053;SDS011;23859;50.672;7.164;2023-02-13T12:04:38;11.98;;;6.82;;
38053;SDS011;23859;50.672;7.164;2023-02-13T12:09:58;11.95;;;7.05;;
38053;SDS011;23859;50.672;7.164;2023-02-13T12:12:44;9.95;;;6.15;;
38053;SDS011;23859;50.672;7.164;2023-02-13T12:15:18;11.85;;;7.22;;
38053;SDS011;23859;50.672;7.164;2023-02-13T12:17:53;10.70;;;6.32;;
38053;SDS011;23859;50.672;7.164;2023-02-13T12:20:36;10.95;;;6.70;;
38053;SDS011;23859;50.672;7.164;2023-02-13T12:29:30;11.15;;;6.20;;
38053;SDS011;23859;50.672;7.164;2023-02-13T12:32:31;12.60;;;5.95;;
38053;SDS011;23859;50.672;7.164;2023-02-13T12:35:26;11.43;;;7.32;;
38053;SDS011;23859;50.672;7.164;2023-02-13T12:38:10;13.65;;;6.85;;
38053;SDS011;23859;50.672;7.164;2023-02-13T12:55:01;10.75;;;5.18;;
38053;SDS011;23859;50.672;7.164;2023-02-13T12:58:16;7.32;;;4.90;;
38053;SDS011;23859;50.672;7.164;2023-02-13T13:03:21;8.85;;;5.43;;
38053;SDS011;23859;50.672;7.164;2023-02-13T13:16:42;8.77;;;4.47;;
38053;SDS011;23859;50.672;7.164;2023-02-13T13:24:48;7.50;;;4.93;;
38053;SDS011;23859;50.672;7.164;2023-02-13T13:27:35;8.05;;;4.45;;
38053;SDS011;23859;50.672;7.164;2023-02-13T13:30:15;8.80;;;4.75;;
38053;SDS011;23859;50.672;7.164;2023-02-13T13:32:50;8.75;;;5.75;;
38053;SDS011;23859;50.672;7.164;2023-02-13T13:35:24;11.63;;;5.65;;
38053;SDS011;23859;50.672;7.164;2023-02-13T13:37:55;13.40;;;4.90;;
38053;SDS011;23859;50.672;7.164;2023-02-13T13:40:37;10.98;;;5.28;;
38053;SDS011;23859;50.672;7.164;2023-02-13T13:46:07;8.32;;;5.18;;
38053;SDS011;23859;50.672;7.164;2023-02-13T13:51:42;9.07;;;4.70;;
38053;SDS011;23859;50.672;7.164;2023-02-13T13:59:19;10.60;;;4.47;;
38053;SDS011;23859;50.672;7.164;2023-02-13T14:07:46;8.15;;;4.30;;
38053;SDS011;23859;50.672;7.164;2023-02-13T14:12:47;8.85;;;4.90;;
38053;SDS011;23859;50.672;7.164;2023-02-13T14:17:59;7.18;;;4.43;;
38053;SDS011;23859;50.672;7.164;2023-02-13T14:28:40;7.28;;;4.38;;
38053;SDS011;23859;50.672;7.164;2023-02-13T14:31:24;9.48;;;4.72;;
38053;SDS011;23859;50.672;7.164;2023-02-13T14:33:59;7.25;;;4.80;;
38053;SDS011;23859;50.672;7.164;2023-02-13T14:36:31;7.03;;;4.55;;
38053;SDS011;23859;50.672;7.164;2023-02-13T14:39:03;10.40;;;5.35;;
38053;SDS011;23859;50.672;7.164;2023-02-13T14:44:19;8.80;;;5.82;;
38053;SDS011;23859;50.672;7.164;2023-02-13T14:46:56;12.25;;;6.38;;
38053;SDS011;23859;50.672;7.164;2023-02-13T14:49:29;9.20;;;5.63;;
38053;SDS011;23859;50.672;7.164;2023-02-13T14:52:04;7.72;;;4.18;;
38053;SDS011;23859;50.672;7.164;2023-02-13T14:54:42;7.30;;;4.97;;
38053;SDS011;23859;50.672;7.164;2023-02-13T14:59:55;9.40;;;4.38;;
38053;SDS011;23859;50.672;7.164;2023-02-13T15:02:24;8.63;;;4.15;;
38053;SDS011;23859;50.672;7.164;2023-02-13T15:04:59;7.85;;;4.90;;
38053;SDS011;23859;50.672;7.164;2023-02-13T15:07:29;9.13;;;4.60;;
38053;SDS011;23859;50.672;7.164;2023-02-13T15:09:59;9.93;;;5.95;;
38053;SDS011;23859;50.672;7.164;2023-02-13T15:12:31;10.93;;;6.13;;
38053;SDS011;23859;50.672;7.164;2023-02-13T15:14:59;10.07;;;5.03;;
38053;SDS011;23859;50.672;7.164;2023-02-13T15:17:28;7.43;;;4.72;;
38053;SDS011;23859;50.672;7.164;2023-02-13T15:20:14;8.55;;;4.18;;
38053;SDS011;23859;50.672;7.164;2023-02-13T15:22:49;8.60;;;4.60;;
38053;SDS011;23859;50.672;7.164;2023-02-13T15:25:22;7.78;;;4.88;;
38053;SDS011;23859;50.672;7.164;2023-02-13T15:27:55;8.00;;;4.80;;
38053;SDS011;23859;50.672;7.164;2023-02-13T15:30:27;6.78;;;4.47;;
38053;SDS011;23859;50.672;7.164;2023-02-13T15:32:59;6.82;;;4.50;;
38053;SDS011;23859;50.672;7.164;2023-02-13T15:35:27;8.23;;;4.70;;
38053;SDS011;23859;50.672;7.164;2023-02-13T15:37:55;7.55;;;4.00;;
38053;SDS011;23859;50.672;7.164;2023-02-13T15:42:54;7.85;;;4.60;;
38053;SDS011;23859;50.672;7.164;2023-02-13T15:45:22;6.93;;;4.72;;
38053;SDS011;23859;50.672;7.164;2023-02-13T15:47:51;8.00;;;4.47;;
38053;SDS011;23859;50.672;7.164;2023-02-13T15:50:30;8.20;;;4.15;;
38053;SDS011;23859;50.672;7.164;2023-02-13T15:52:59;7.68;;;4.53;;
38053;SDS011;23859;50.672;7.164;2023-02-13T15:55:30;10.93;;;5.38;;
38053;SDS011;23859;50.672;7.164;2023-02-13T15:58:00;9.90;;;5.20;;
38053;SDS011;23859;50.672;7.164;2023-02-13T16:00:28;8.48;;;4.70;;
38053;SDS011;23859;50.672;7.164;2023-02-13T16:02:57;7.25;;;4.38;;
38053;SDS011;23859;50.672;7.164;2023-02-13T16:05:26;9.15;;;4.53;;
38053;SDS011;23859;50.672;7.164;2023-02-13T16:07:58;6.35;;;4.07;;
38053;SDS011;23859;50.672;7.164;2023-02-13T16:10:31;7.70;;;4.50;;
38053;SDS011;23859;50.672;7.164;2023-02-13T16:13:02;7.22;;;4.90;;
38053;SDS011;23859;50.672;7.164;2023-02-13T16:15:31;7.38;;;4.35;;
38053;SDS011;23859;50.672;7.164;2023-02-13T16:18:00;8.23;;;5.13;;
38053;SDS011;23859;50.672;7.164;2023-02-13T16:20:28;8.50;;;5.00;;
38053;SDS011;23859;50.672;7.164;2023-02-13T16:23:00;10.05;;;5.28;;
38053;SDS011;23859;50.672;7.164;2023-02-13T16:25:38;9.18;;;5.78;;
38053;SDS011;23859;50.672;7.164;2023-02-13T16:30:41;10.65;;;5.88;;
38053;SDS011;23859;50.672;7.164;2023-02-13T16:35:45;7.63;;;4.80;;
38053;SDS011;23859;50.672;7.164;2023-02-13T16:43:46;10.23;;;4.50;;
38053;SDS011;23859;50.672;7.164;2023-02-13T16:49:03;7.95;;;4.47;;
38053;SDS011;23859;50.672;7.164;2023-02-13T16:54:21;7.80;;;4.70;;
38053;SDS011;23859;50.672;7.164;2023-02-13T16:56:58;10.68;;;5.25;;
38053;SDS011;23859;50.672;7.164;2023-02-13T17:07:37;10.95;;;6.60;;
38053;SDS011;23859;50.672;7.164;2023-02-13T17:15:42;11.52;;;5.22;;
38053;SDS011;23859;50.672;7.164;2023-02-13T17:18:10;10.43;;;5.38;;
38053;SDS011;23859;50.672;7.164;2023-02-13T17:20:36;8.70;;;4.72;;
38053;SDS011;23859;50.672;7.164;2023-02-13T17:23:05;8.90;;;4.72;;
38053;SDS011;23859;50.672;7.164;2023-02-13T17:25:38;8.57;;;5.55;;
38053;SDS011;23859;50.672;7.164;2023-02-13T17:28:11;14.23;;;5.35;;
38053;SDS011;23859;50.672;7.164;2023-02-13T17:30:39;9.73;;;5.38;;
38053;SDS011;23859;50.672;7.164;2023-02-13T17:33:09;6.78;;;4.85;;
38053;SDS011;23859;50.672;7.164;2023-02-13T17:35:36;12.88;;;5.38;;
38053;SDS011;23859;50.672;7.164;2023-02-13T17:38:02;12.93;;;6.05;;
38053;SDS011;23859;50.672;7.164;2023-02-13T17:40:30;13.20;;;6.55;;
38053;SDS011;23859;50.672;7.164;2023-02-13T17:42:57;13.50;;;6.97;;
38053;SDS011;23859;50.672;7.164;2023-02-13T17:45:24;12.38;;;6.20;;
38053;SDS011;23859;50.672;7.164;2023-02-13T17:47:52;12.35;;;6.93;;
38053;SDS011;23859;50.672;7.164;2023-02-13T17:50:19;18.52;;;7.30;;